| time (UTC) | temp F | wind direction | speed MPH | gust MPH | rain 1hr in | rain 24hr in | rain mn in | humidity % | barometer mb |
| 20260506190211 | 50 | 187 | 12.0 | 0.0 | 0.00 | 0.00 | 0.30 | 94 | 1010.8 |
| 20260506183209 | 51 | 224 | 6.0 | 0.0 | 0.00 | 0.00 | 0.26 | 94 | 1010.6 |
| 20260506180216 | 51 | 245 | 3.0 | 0.0 | 0.00 | 0.00 | 0.21 | 94 | 1010.2 |
| 20260506173210 | 51 | 216 | 10.0 | 0.0 | 0.00 | 0.00 | 0.18 | 94 | 1009.8 |
| 20260506170215 | 52 | 129 | 5.0 | 0.0 | 0.00 | 0.00 | 0.14 | 93 | 1009.5 |
| 20260506163210 | 52 | 172 | 9.0 | 0.0 | 0.00 | 0.00 | 0.10 | 91 | 1009.5 |
| 20260506160210 | 52 | 212 | 5.0 | 0.0 | 0.00 | 0.00 | 0.07 | 90 | 1009.4 |
| 20260506153210 | 52 | 255 | 6.0 | 0.0 | 0.00 | 0.00 | 0.04 | 87 | 1009.2 |
| 20260506150210 | 53 | 208 | 11.0 | 0.0 | 0.00 | 0.00 | 0.02 | 83 | 1009.0 |
| 20260506143210 | 54 | 226 | 10.0 | 0.0 | 0.00 | 0.00 | 0.02 | 84 | 1008.9 |
| 20260506140210 | 54 | 134 | 11.0 | 0.0 | 0.00 | 0.00 | 0.02 | 85 | 1008.8 |
| 20260506133211 | 55 | 207 | 10.0 | 0.0 | 0.00 | 0.00 | 0.02 | 87 | 1008.7 |
| 20260506130211 | 56 | 284 | 12.0 | 0.0 | 0.00 | 0.00 | 0.01 | 84 | 1008.4 |
| 20260506123210 | 57 | 162 | 15.0 | 0.0 | 0.00 | 0.00 | 0.01 | 87 | 1008.0 |
| 20260506120210 | 58 | 237 | 9.0 | 0.0 | 0.00 | 0.00 | 0.00 | 86 | 1007.7 |
| 20260506113217 | 58 | 309 | 16.0 | 0.0 | 0.00 | 0.00 | 0.00 | 82 | 1007.6 |
| 20260506110210 | 59 | 270 | 5.0 | 0.0 | 0.00 | 0.00 | 0.00 | 81 | 1007.6 |
| 20260506100213 | 59 | 234 | 9.0 | 0.0 | 0.00 | 0.00 | 0.00 | 77 | 1007.2 |
| 20260506093211 | 59 | 216 | 6.0 | 0.0 | 0.00 | 0.00 | 0.00 | 74 | 1007.1 |
| 20260506090211 | 61 | 193 | 8.0 | 0.0 | 0.00 | 0.00 | 0.00 | 72 | 1007.0 |
| 20260506083211 | 61 | 225 | 6.0 | 0.0 | 0.00 | 0.00 | 0.00 | 73 | 1006.7 |
| 20260506080212 | 59 | 189 | 6.0 | 0.0 | 0.00 | 0.00 | 0.00 | 75 | 1006.9 |
| 20260506073211 | 58 | 102 | 5.0 | 0.0 | 0.00 | 0.00 | 0.00 | 77 | 1006.9 |
| 20260506070212 | 59 | 224 | 5.0 | 0.0 | 0.00 | 0.00 | 0.00 | 76 | 1006.9 |
| 20260506060210 | 56 | 172 | 3.0 | 0.0 | 0.00 | 0.00 | 0.00 | 81 | 1007.0 |
| 20260506050211 | 53 | 136 | 2.0 | 0.0 | 0.00 | 0.00 | 0.00 | 85 | 1007.1 |
| 20260506043211 | 53 | 227 | 4.0 | 0.0 | 0.00 | 0.00 | 0.00 | 85 | 1007.3 |
| 20260506040211 | 53 | 253 | 4.0 | 0.0 | 0.00 | 0.00 | 0.00 | 85 | 1007.5 |
| 20260506033211 | 52 | 152 | 3.0 | 0.0 | 0.00 | 0.00 | 0.00 | 86 | 1007.6 |
| 20260506030212 | 51 | 132 | 2.0 | 0.0 | 0.00 | 0.00 | 0.00 | 89 | 1007.7 |
| 20260506023211 | 52 | 211 | 1.0 | 0.0 | 0.00 | 0.00 | 0.00 | 86 | 1008.0 |
| 20260506020212 | 53 | 226 | 2.0 | 0.0 | 0.00 | 0.00 | 0.00 | 84 | 1008.1 |
| 20260506013211 | 53 | 204 | 1.0 | 0.0 | 0.00 | 0.00 | 0.00 | 86 | 1008.6 |
| 20260506010212 | 52 | 228 | 1.0 | 0.0 | 0.00 | 0.00 | 0.00 | 87 | 1008.4 |
| 20260506003209 | 52 | 224 | 0.0 | 0.0 | 0.00 | 0.00 | 0.00 | 88 | 1008.5 |
| 20260506000211 | 53 | 203 | 2.0 | 0.0 | 0.00 | 0.00 | 0.00 | 86 | 1008.9 |
| 20260505233209 | 54 | 229 | 1.0 | 0.0 | 0.00 | 0.00 | 0.00 | 85 | 1009.0 |
| 20260505230209 | 54 | 128 | 1.0 | 0.0 | 0.00 | 0.00 | 0.00 | 85 | 1009.1 |
| 20260505223210 | 54 | 131 | 2.0 | 0.0 | 0.00 | 0.00 | 0.00 | 86 | 1009.3 |
| 20260505220209 | 54 | 235 | 2.0 | 0.0 | 0.00 | 0.00 | 0.13 | 86 | 1009.5 |
| 20260505213211 | 54 | 228 | 1.0 | 0.0 | 0.00 | 0.00 | 0.13 | 86 | 1009.3 |
| 20260505210215 | 55 | 140 | 2.0 | 0.0 | 0.00 | 0.00 | 0.13 | 86 | 1009.5 |
| 20260505203209 | 56 | 143 | 5.0 | 0.0 | 0.00 | 0.00 | 0.13 | 86 | 1009.5 |
| 20260505200210 | 56 | 127 | 1.0 | 0.0 | 0.00 | 0.00 | 0.13 | 88 | 1009.2 |
| 20260505193209 | 57 | 139 | 2.0 | 0.0 | 0.00 | 0.00 | 0.13 | 86 | 1009.0 |